sensor_id;sensor_type;location;lat;lon;timestamp;pressure;altitude;pressure_sealevel;temperature;humidity
49943;BME280;36011;53.362;58.948;2023-03-01T00:00:04;95179.59;;;-3.16;63.08
49943;BME280;36011;53.362;58.948;2023-03-01T00:03:06;95169.06;;;-3.09;62.52
49943;BME280;36011;53.362;58.948;2023-03-01T00:06:10;95176.13;;;-3.14;63.04
49943;BME280;36011;53.362;58.948;2023-03-01T00:09:15;95168.38;;;-3.13;62.74
49943;BME280;36011;53.362;58.948;2023-03-01T00:12:22;95162.28;;;-3.10;62.88
49943;BME280;36011;53.362;58.948;2023-03-01T00:15:26;95165.84;;;-3.14;62.54
49943;BME280;36011;53.362;58.948;2023-03-01T00:18:29;95171.84;;;-3.14;63.06
49943;BME280;36011;53.362;58.948;2023-03-01T00:21:34;95157.50;;;-3.20;63.33
49943;BME280;36011;53.362;58.948;2023-03-01T00:24:38;95148.88;;;-3.19;63.34
49943;BME280;36011;53.362;58.948;2023-03-01T00:27:39;95162.75;;;-3.23;63.70
49943;BME280;36011;53.362;58.948;2023-03-01T00:30:44;95151.56;;;-3.22;64.09
49943;BME280;36011;53.362;58.948;2023-03-01T00:33:46;95150.41;;;-3.14;63.67
49943;BME280;36011;53.362;58.948;2023-03-01T00:36:47;95139.00;;;-3.07;63.43
49943;BME280;36011;53.362;58.948;2023-03-01T00:39:49;95122.88;;;-3.34;64.03
49943;BME280;36011;53.362;58.948;2023-03-01T00:42:50;95130.19;;;-3.24;64.30
49943;BME280;36011;53.362;58.948;2023-03-01T00:46:01;95130.06;;;-3.21;64.52
49943;BME280;36011;53.362;58.948;2023-03-01T00:49:04;95116.66;;;-3.07;63.86
49943;BME280;36011;53.362;58.948;2023-03-01T00:52:11;95118.25;;;-3.03;63.80
49943;BME280;36011;53.362;58.948;2023-03-01T00:55:16;95107.34;;;-3.09;63.69
49943;BME280;36011;53.362;58.948;2023-03-01T00:58:18;95105.66;;;-3.10;63.82
49943;BME280;36011;53.362;58.948;2023-03-01T01:01:23;95106.47;;;-2.88;63.46
49943;BME280;36011;53.362;58.948;2023-03-01T01:04:29;95090.88;;;-3.05;63.54
49943;BME280;36011;53.362;58.948;2023-03-01T01:07:32;95101.94;;;-3.03;63.58
49943;BME280;36011;53.362;58.948;2023-03-01T01:10:37;95100.53;;;-3.10;64.40
49943;BME280;36011;53.362;58.948;2023-03-01T01:13:43;95090.09;;;-3.07;64.15
49943;BME280;36011;53.362;58.948;2023-03-01T01:16:45;95093.06;;;-3.17;64.20
49943;BME280;36011;53.362;58.948;2023-03-01T01:19:49;95099.44;;;-3.05;64.00
49943;BME280;36011;53.362;58.948;2023-03-01T01:22:52;95080.41;;;-3.01;63.99
49943;BME280;36011;53.362;58.948;2023-03-01T01:25:54;95072.63;;;-2.99;63.93
49943;BME280;36011;53.362;58.948;2023-03-01T01:28:57;95077.66;;;-2.96;64.11
49943;BME280;36011;53.362;58.948;2023-03-01T01:32:03;95066.19;;;-2.89;63.73
49943;BME280;36011;53.362;58.948;2023-03-01T01:35:08;95064.00;;;-2.78;63.03
49943;BME280;36011;53.362;58.948;2023-03-01T01:38:09;95061.19;;;-2.72;62.98
49943;BME280;36011;53.362;58.948;2023-03-01T01:41:15;95054.34;;;-2.73;63.19
49943;BME280;36011;53.362;58.948;2023-03-01T01:44:26;95053.34;;;-2.68;62.97
49943;BME280;36011;53.362;58.948;2023-03-01T01:47:33;95050.91;;;-2.72;62.97
49943;BME280;36011;53.362;58.948;2023-03-01T01:50:35;95045.72;;;-2.92;63.75
49943;BME280;36011;53.362;58.948;2023-03-01T01:53:40;95043.28;;;-2.95;63.80
49943;BME280;36011;53.362;58.948;2023-03-01T01:56:48;95056.41;;;-2.81;63.52
49943;BME280;36011;53.362;58.948;2023-03-01T01:59:55;95040.00;;;-2.78;63.32
49943;BME280;36011;53.362;58.948;2023-03-01T02:03:10;95052.34;;;-2.86;63.76
49943;BME280;36011;53.362;58.948;2023-03-01T02:06:33;95033.75;;;-2.73;63.20
49943;BME280;36011;53.362;58.948;2023-03-01T02:09:34;95030.94;;;-2.87;63.88
49943;BME280;36011;53.362;58.948;2023-03-01T02:12:41;95039.19;;;-2.79;63.61
49943;BME280;36011;53.362;58.948;2023-03-01T02:16:11;95029.28;;;-2.88;64.27
49943;BME280;36011;53.362;58.948;2023-03-01T02:19:26;95016.78;;;-2.77;63.92
49943;BME280;36011;53.362;58.948;2023-03-01T02:22:36;95008.41;;;-2.82;63.92
49943;BME280;36011;53.362;58.948;2023-03-01T02:28:57;95005.31;;;-2.69;63.73
49943;BME280;36011;53.362;58.948;2023-03-01T02:32:00;94996.59;;;-2.86;64.11
49943;BME280;36011;53.362;58.948;2023-03-01T02:35:05;95005.31;;;-2.69;63.06
49943;BME280;36011;53.362;58.948;2023-03-01T02:38:10;94990.91;;;-2.74;63.46
49943;BME280;36011;53.362;58.948;2023-03-01T02:41:15;94995.59;;;-2.83;63.62
49943;BME280;36011;53.362;58.948;2023-03-01T02:44:21;94991.38;;;-3.05;64.35
49943;BME280;36011;53.362;58.948;2023-03-01T02:47:22;94992.91;;;-3.01;63.75
49943;BME280;36011;53.362;58.948;2023-03-01T02:56:37;94971.69;;;-2.85;63.89
49943;BME280;36011;53.362;58.948;2023-03-01T02:59:42;94975.25;;;-3.08;64.54
49943;BME280;36011;53.362;58.948;2023-03-01T03:02:49;94977.66;;;-3.26;65.21
49943;BME280;36011;53.362;58.948;2023-03-01T03:05:53;94971.09;;;-3.33;65.29
49943;BME280;36011;53.362;58.948;2023-03-01T03:08:55;94977.88;;;-3.30;65.17
49943;BME280;36011;53.362;58.948;2023-03-01T03:12:01;94978.88;;;-3.34;64.54
49943;BME280;36011;53.362;58.948;2023-03-01T03:15:08;94974.06;;;-3.42;63.96
49943;BME280;36011;53.362;58.948;2023-03-01T03:18:13;94974.25;;;-3.69;63.94
49943;BME280;36011;53.362;58.948;2023-03-01T03:21:18;94962.06;;;-3.64;62.79
49943;BME280;36011;53.362;58.948;2023-03-01T03:24:21;94973.53;;;-3.72;62.95
49943;BME280;36011;53.362;58.948;2023-03-01T03:27:25;94975.81;;;-3.65;62.26
49943;BME280;36011;53.362;58.948;2023-03-01T03:30:32;94987.88;;;-3.67;62.02
49943;BME280;36011;53.362;58.948;2023-03-01T03:33:36;94984.06;;;-3.56;62.15
49943;BME280;36011;53.362;58.948;2023-03-01T03:36:39;94975.47;;;-3.35;60.85
49943;BME280;36011;53.362;58.948;2023-03-01T03:39:43;94983.44;;;-3.41;60.32
49943;BME280;36011;53.362;58.948;2023-03-01T03:42:49;94969.34;;;-3.53;60.35
49943;BME280;36011;53.362;58.948;2023-03-01T03:45:54;94964.22;;;-3.75;60.75
49943;BME280;36011;53.362;58.948;2023-03-01T03:49:01;94969.66;;;-3.61;60.35
49943;BME280;36011;53.362;58.948;2023-03-01T03:52:06;94979.38;;;-3.69;60.48
49943;BME280;36011;53.362;58.948;2023-03-01T03:55:17;94976.66;;;-3.64;60.48
49943;BME280;36011;53.362;58.948;2023-03-01T03:58:23;94964.78;;;-3.46;59.81
49943;BME280;36011;53.362;58.948;2023-03-01T04:01:28;94963.41;;;-3.55;59.73
49943;BME280;36011;53.362;58.948;2023-03-01T04:04:33;94980.06;;;-3.64;60.12
49943;BME280;36011;53.362;58.948;2023-03-01T04:07:38;94977.75;;;-3.49;59.99
49943;BME280;36011;53.362;58.948;2023-03-01T04:10:46;94951.69;;;-3.20;59.41
49943;BME280;36011;53.362;58.948;2023-03-01T04:13:52;94924.09;;;-3.16;58.88
49943;BME280;36011;53.362;58.948;2023-03-01T04:16:57;94935.34;;;-2.98;58.16
49943;BME280;36011;53.362;58.948;2023-03-01T04:20:02;94938.31;;;-3.07;57.60
49943;BME280;36011;53.362;58.948;2023-03-01T04:23:10;94919.81;;;-3.36;58.29
49943;BME280;36011;53.362;58.948;2023-03-01T04:26:14;94922.81;;;-3.47;58.68
49943;BME280;36011;53.362;58.948;2023-03-01T04:29:17;94920.94;;;-3.64;59.19
49943;BME280;36011;53.362;58.948;2023-03-01T04:32:23;94919.28;;;-3.65;58.92
49943;BME280;36011;53.362;58.948;2023-03-01T04:35:28;94905.50;;;-3.64;58.93
49943;BME280;36011;53.362;58.948;2023-03-01T04:38:32;94910.47;;;-3.39;58.28
49943;BME280;36011;53.362;58.948;2023-03-01T04:41:38;94919.53;;;-3.50;58.53
49943;BME280;36011;53.362;58.948;2023-03-01T04:44:44;94914.25;;;-3.68;58.86
49943;BME280;36011;53.362;58.948;2023-03-01T04:47:46;94933.38;;;-3.75;59.23
49943;BME280;36011;53.362;58.948;2023-03-01T04:50:51;94918.81;;;-3.96;59.94
49943;BME280;36011;53.362;58.948;2023-03-01T04:53:55;94922.69;;;-3.86;60.28
49943;BME280;36011;53.362;58.948;2023-03-01T04:57:02;94917.28;;;-3.38;59.25
49943;BME280;36011;53.362;58.948;2023-03-01T05:00:08;94915.28;;;-3.10;58.48
49943;BME280;36011;53.362;58.948;2023-03-01T05:03:26;94916.47;;;-2.59;57.54
49943;BME280;36011;53.362;58.948;2023-03-01T05:06:32;94909.75;;;-2.43;56.87
49943;BME280;36011;53.362;58.948;2023-03-01T05:09:37;94893.56;;;-2.28;57.09
49943;BME280;36011;53.362;58.948;2023-03-01T05:12:42;94892.16;;;-1.79;56.32
49943;BME280;36011;53.362;58.948;2023-03-01T05:15:48;94896.44;;;-1.26;55.35
49943;BME280;36011;53.362;58.948;2023-03-01T05:18:54;94898.31;;;-0.62;54.58
49943;BME280;36011;53.362;58.948;2023-03-01T05:21:58;94898.75;;;-0.06;52.31
49943;BME280;36011;53.362;58.948;2023-03-01T05:25:05;94883.91;;;-0.18;50.44
49943;BME280;36011;53.362;58.948;2023-03-01T05:28:14;94882.97;;;-0.65;50.66
49943;BME280;36011;53.362;58.948;2023-03-01T05:31:20;94874.75;;;-0.89;50.78
49943;BME280;36011;53.362;58.948;2023-03-01T05:34:35;94865.19;;;-0.71;51.17
49943;BME280;36011;53.362;58.948;2023-03-01T05:37:46;94873.50;;;-0.33;51.24
49943;BME280;36011;53.362;58.948;2023-03-01T05:40:52;94860.44;;;0.16;50.21
49943;BME280;36011;53.362;58.948;2023-03-01T05:43:57;94859.53;;;0.48;48.62
49943;BME280;36011;53.362;58.948;2023-03-01T05:47:02;94864.44;;;0.97;47.68
49943;BME280;36011;53.362;58.948;2023-03-01T05:50:05;94855.63;;;1.98;45.43
49943;BME280;36011;53.362;58.948;2023-03-01T05:56:13;94852.91;;;1.17;46.40
49943;BME280;36011;53.362;58.948;2023-03-01T05:59:17;94851.66;;;0.79;46.58
49943;BME280;36011;53.362;58.948;2023-03-01T06:02:22;94848.69;;;0.41;47.05
49943;BME280;36011;53.362;58.948;2023-03-01T06:05:28;94854.44;;;0.16;48.30
49943;BME280;36011;53.362;58.948;2023-03-01T06:08:32;94859.97;;;-0.06;48.78
49943;BME280;36011;53.362;58.948;2023-03-01T06:11:37;94849.16;;;-0.44;49.84
49943;BME280;36011;53.362;58.948;2023-03-01T06:14:42;94828.13;;;-0.70;50.29
49943;BME280;36011;53.362;58.948;2023-03-01T06:17:47;94843.47;;;-0.67;50.47
49943;BME280;36011;53.362;58.948;2023-03-01T06:20:56;94823.72;;;-0.52;50.87
49943;BME280;36011;53.362;58.948;2023-03-01T06:24:01;94834.16;;;-0.54;50.26
49943;BME280;36011;53.362;58.948;2023-03-01T06:27:05;94839.25;;;-0.85;50.98
49943;BME280;36011;53.362;58.948;2023-03-01T06:30:12;94833.47;;;-0.73;50.99
49943;BME280;36011;53.362;58.948;2023-03-01T06:33:18;94832.22;;;-0.50;50.32
49943;BME280;36011;53.362;58.948;2023-03-01T06:36:28;94826.50;;;-0.39;50.20
49943;BME280;36011;53.362;58.948;2023-03-01T06:39:33;94833.38;;;-0.24;50.18
49943;BME280;36011;53.362;58.948;2023-03-01T06:42:39;94843.25;;;0.15;49.23
49943;BME280;36011;53.362;58.948;2023-03-01T06:45:43;94839.50;;;0.51;48.80
49943;BME280;36011;53.362;58.948;2023-03-01T06:48:48;94848.16;;;1.23;47.49
49943;BME280;36011;53.362;58.948;2023-03-01T06:51:51;94852.56;;;1.64;46.17
49943;BME280;36011;53.362;58.948;2023-03-01T06:54:56;94848.59;;;1.73;45.49
49943;BME280;36011;53.362;58.948;2023-03-01T06:58:02;94841.69;;;1.30;45.58
49943;BME280;36011;53.362;58.948;2023-03-01T07:01:07;94857.50;;;0.97;46.29
49943;BME280;36011;53.362;58.948;2023-03-01T07:04:13;94842.84;;;0.67;46.59
49943;BME280;36011;53.362;58.948;2023-03-01T07:07:19;94840.72;;;0.30;47.59
49943;BME280;36011;53.362;58.948;2023-03-01T07:10:25;94828.44;;;0.33;48.31
49943;BME280;36011;53.362;58.948;2023-03-01T07:13:29;94820.13;;;0.42;47.84
49943;BME280;36011;53.362;58.948;2023-03-01T07:16:34;94818.81;;;0.51;48.00
49943;BME280;36011;53.362;58.948;2023-03-01T07:19:37;94815.50;;;0.92;47.30
49943;BME280;36011;53.362;58.948;2023-03-01T07:22:41;94815.97;;;0.84;46.96
49943;BME280;36011;53.362;58.948;2023-03-01T07:25:53;94799.72;;;0.97;46.31
49943;BME280;36011;53.362;58.948;2023-03-01T07:29:01;94794.78;;;1.21;46.45
49943;BME280;36011;53.362;58.948;2023-03-01T07:32:06;94780.75;;;1.52;45.73
49943;BME280;36011;53.362;58.948;2023-03-01T07:35:11;94756.63;;;1.78;44.88
49943;BME280;36011;53.362;58.948;2023-03-01T07:38:15;94763.97;;;2.12;43.86
49943;BME280;36011;53.362;58.948;2023-03-01T07:41:19;94752.91;;;2.48;42.78
49943;BME280;36011;53.362;58.948;2023-03-01T07:44:24;94758.09;;;2.99;42.10
49943;BME280;36011;53.362;58.948;2023-03-01T07:47:29;94745.63;;;3.78;40.10
49943;BME280;36011;53.362;58.948;2023-03-01T07:50:34;94753.88;;;3.72;39.65
49943;BME280;36011;53.362;58.948;2023-03-01T07:53:39;94740.84;;;3.48;39.79
49943;BME280;36011;53.362;58.948;2023-03-01T07:56:44;94734.53;;;3.39;40.16
49943;BME280;36011;53.362;58.948;2023-03-01T07:59:48;94755.94;;;3.79;40.03
49943;BME280;36011;53.362;58.948;2023-03-01T08:02:58;94745.94;;;4.57;38.59
49943;BME280;36011;53.362;58.948;2023-03-01T08:06:05;94739.78;;;5.48;36.61
49943;BME280;36011;53.362;58.948;2023-03-01T08:09:10;94742.41;;;6.02;34.39
49943;BME280;36011;53.362;58.948;2023-03-01T08:12:15;94757.06;;;5.71;35.19
49943;BME280;36011;53.362;58.948;2023-03-01T08:15:23;94758.78;;;5.16;34.55
49943;BME280;36011;53.362;58.948;2023-03-01T08:18:26;94739.88;;;4.10;35.58
49943;BME280;36011;53.362;58.948;2023-03-01T08:21:30;94753.22;;;3.20;36.84
49943;BME280;36011;53.362;58.948;2023-03-01T08:24:35;94747.75;;;2.61;38.03
49943;BME280;36011;53.362;58.948;2023-03-01T08:27:40;94743.91;;;2.41;38.28
49943;BME280;36011;53.362;58.948;2023-03-01T08:30:44;94751.06;;;1.97;39.17
49943;BME280;36011;53.362;58.948;2023-03-01T08:33:52;94752.69;;;1.86;40.11
49943;BME280;36011;53.362;58.948;2023-03-01T08:37:00;94752.75;;;2.11;39.53
49943;BME280;36011;53.362;58.948;2023-03-01T08:40:04;94742.63;;;2.21;38.85
49943;BME280;36011;53.362;58.948;2023-03-01T08:43:11;94735.16;;;2.42;38.88
49943;BME280;36011;53.362;58.948;2023-03-01T08:46:16;94721.16;;;3.20;37.34
49943;BME280;36011;53.362;58.948;2023-03-01T08:49:21;94731.81;;;3.77;35.90
49943;BME280;36011;53.362;58.948;2023-03-01T08:52:26;94715.84;;;4.64;35.02
49943;BME280;36011;53.362;58.948;2023-03-01T08:55:33;94724.63;;;4.74;34.25
49943;BME280;36011;53.362;58.948;2023-03-01T08:58:39;94717.69;;;3.93;34.72
49943;BME280;36011;53.362;58.948;2023-03-01T09:01:44;94714.41;;;3.30;36.11
49943;BME280;36011;53.362;58.948;2023-03-01T09:04:49;94705.94;;;3.39;36.15
49943;BME280;36011;53.362;58.948;2023-03-01T09:07:53;94714.53;;;3.15;36.25
49943;BME280;36011;53.362;58.948;2023-03-01T09:10:58;94700.44;;;2.94;35.94
49943;BME280;36011;53.362;58.948;2023-03-01T09:14:06;94716.06;;;2.43;36.92
49943;BME280;36011;53.362;58.948;2023-03-01T09:17:10;94708.03;;;2.20;36.91
49943;BME280;36011;53.362;58.948;2023-03-01T09:20:15;94723.69;;;2.06;36.78
49943;BME280;36011;53.362;58.948;2023-03-01T09:23:22;94732.75;;;1.73;37.43
49943;BME280;36011;53.362;58.948;2023-03-01T09:26:26;94721.00;;;1.68;37.46
49943;BME280;36011;53.362;58.948;2023-03-01T09:29:31;94705.31;;;1.96;37.69
49943;BME280;36011;53.362;58.948;2023-03-01T09:32:36;94692.41;;;3.47;35.84
49943;BME280;36011;53.362;58.948;2023-03-01T09:35:41;94699.31;;;6.08;32.27
49943;BME280;36011;53.362;58.948;2023-03-01T09:38:51;94719.38;;;8.89;29.18
49943;BME280;36011;53.362;58.948;2023-03-01T09:42:02;94700.56;;;10.31;26.88
49943;BME280;36011;53.362;58.948;2023-03-01T09:45:18;94709.78;;;12.08;24.68
49943;BME280;36011;53.362;58.948;2023-03-01T09:48:26;94703.25;;;13.58;23.11
49943;BME280;36011;53.362;58.948;2023-03-01T09:51:36;94693.66;;;13.65;22.16
49943;BME280;36011;53.362;58.948;2023-03-01T09:54:42;94664.59;;;13.01;21.97
49943;BME280;36011;53.362;58.948;2023-03-01T09:57:53;94664.56;;;10.50;24.54
49943;BME280;36011;53.362;58.948;2023-03-01T10:01:05;94673.00;;;8.13;27.34
49943;BME280;36011;53.362;58.948;2023-03-01T10:11:27;94659.09;;;8.79;26.40
49943;BME280;36011;53.362;58.948;2023-03-01T10:18:00;94673.25;;;7.11;28.64
49943;BME280;36011;53.362;58.948;2023-03-01T10:21:19;94663.38;;;7.25;28.55
49943;BME280;36011;53.362;58.948;2023-03-01T10:24:34;94655.94;;;7.30;27.79
49943;BME280;36011;53.362;58.948;2023-03-01T10:27:59;94645.59;;;6.88;28.62
49943;BME280;36011;53.362;58.948;2023-03-01T10:31:09;94622.44;;;5.48;30.64
49943;BME280;36011;53.362;58.948;2023-03-01T10:34:21;94628.97;;;4.87;31.89
49943;BME280;36011;53.362;58.948;2023-03-01T10:37:27;94627.97;;;5.87;31.09
49943;BME280;36011;53.362;58.948;2023-03-01T10:40:34;94634.09;;;6.60;29.88
49943;BME280;36011;53.362;58.948;2023-03-01T10:43:53;94617.63;;;5.64;30.96
49943;BME280;36011;53.362;58.948;2023-03-01T10:47:03;94635.94;;;5.53;30.99
49943;BME280;36011;53.362;58.948;2023-03-01T10:50:20;94638.78;;;4.84;31.90
49943;BME280;36011;53.362;58.948;2023-03-01T10:56:46;94646.19;;;2.53;36.20
49943;BME280;36011;53.362;58.948;2023-03-01T11:00:02;94641.59;;;1.79;37.73
49943;BME280;36011;53.362;58.948;2023-03-01T11:03:13;94652.50;;;1.18;39.52
49943;BME280;36011;53.362;58.948;2023-03-01T11:06:21;94667.22;;;1.17;40.06
49943;BME280;36011;53.362;58.948;2023-03-01T11:09:26;94672.50;;;0.74;40.91
49943;BME280;36011;53.362;58.948;2023-03-01T11:12:33;94672.50;;;0.31;42.41
49943;BME280;36011;53.362;58.948;2023-03-01T11:15:35;94671.19;;;0.10;42.81
49943;BME280;36011;53.362;58.948;2023-03-01T11:18:40;94668.53;;;-0.33;43.45
49943;BME280;36011;53.362;58.948;2023-03-01T11:24:57;94666.63;;;-0.46;44.02
49943;BME280;36011;53.362;58.948;2023-03-01T11:28:04;94664.91;;;-0.61;44.64
49943;BME280;36011;53.362;58.948;2023-03-01T11:31:10;94708.16;;;-0.64;44.56
49943;BME280;36011;53.362;58.948;2023-03-01T11:34:23;94680.47;;;-0.62;44.42
49943;BME280;36011;53.362;58.948;2023-03-01T11:37:41;94670.63;;;-1.02;45.08
49943;BME280;36011;53.362;58.948;2023-03-01T11:44:43;94670.59;;;-1.33;45.94
49943;BME280;36011;53.362;58.948;2023-03-01T11:47:32;94681.44;;;-1.27;45.90
49943;BME280;36011;53.362;58.948;2023-03-01T11:50:47;94684.16;;;-1.46;46.50
49943;BME280;36011;53.362;58.948;2023-03-01T11:57:15;94661.84;;;-1.63;46.46
49943;BME280;36011;53.362;58.948;2023-03-01T12:07:01;94675.53;;;-2.11;47.46
49943;BME280;36011;53.362;58.948;2023-03-01T12:10:19;94704.69;;;-2.28;47.67
49943;BME280;36011;53.362;58.948;2023-03-01T12:23:55;94689.84;;;-2.40;47.82
49943;BME280;36011;53.362;58.948;2023-03-01T12:30:35;94687.34;;;-2.42;48.58
49943;BME280;36011;53.362;58.948;2023-03-01T12:33:54;94687.28;;;-2.40;48.52
49943;BME280;36011;53.362;58.948;2023-03-01T12:37:11;94688.41;;;-2.46;48.60
49943;BME280;36011;53.362;58.948;2023-03-01T12:50:54;94698.06;;;-2.86;50.54
49943;BME280;36011;53.362;58.948;2023-03-01T12:54:05;94671.66;;;-3.08;50.99
49943;BME280;36011;53.362;58.948;2023-03-01T12:57:37;94670.78;;;-2.90;50.71
49943;BME280;36011;53.362;58.948;2023-03-01T13:10:46;94713.44;;;-3.03;51.90
49943;BME280;36011;53.362;58.948;2023-03-01T13:13:52;94693.66;;;-3.39;52.39
49943;BME280;36011;53.362;58.948;2023-03-01T13:16:55;94702.13;;;-3.56;53.10
49943;BME280;36011;53.362;58.948;2023-03-01T13:19:58;94699.31;;;-3.51;53.29
49943;BME280;36011;53.362;58.948;2023-03-01T13:26:25;94715.03;;;-3.57;53.44
49943;BME280;36011;53.362;58.948;2023-03-01T13:32:49;94699.88;;;-3.64;53.68
49943;BME280;36011;53.362;58.948;2023-03-01T13:35:57;94710.56;;;-3.73;53.80
49943;BME280;36011;53.362;58.948;2023-03-01T13:39:31;94697.88;;;-3.96;54.62
49943;BME280;36011;53.362;58.948;2023-03-01T13:45:49;94705.28;;;-4.30;55.26
49943;BME280;36011;53.362;58.948;2023-03-01T13:48:54;94707.25;;;-4.57;56.31
49943;BME280;36011;53.362;58.948;2023-03-01T13:51:57;94724.44;;;-4.59;56.34
49943;BME280;36011;53.362;58.948;2023-03-01T13:55:03;94709.34;;;-4.44;56.04
49943;BME280;36011;53.362;58.948;2023-03-01T14:01:36;94703.91;;;-4.59;56.64
49943;BME280;36011;53.362;58.948;2023-03-01T14:04:40;94714.91;;;-4.77;56.69
49943;BME280;36011;53.362;58.948;2023-03-01T14:07:41;94731.13;;;-4.77;56.88
49943;BME280;36011;53.362;58.948;2023-03-01T14:14:14;94734.84;;;-5.06;57.30
49943;BME280;36011;53.362;58.948;2023-03-01T14:20:59;94721.34;;;-5.11;57.28
49943;BME280;36011;53.362;58.948;2023-03-01T14:24:02;94715.66;;;-5.17;57.32
49943;BME280;36011;53.362;58.948;2023-03-01T14:27:12;94708.78;;;-5.17;57.22
49943;BME280;36011;53.362;58.948;2023-03-01T14:30:23;94705.72;;;-5.27;57.93
49943;BME280;36011;53.362;58.948;2023-03-01T14:33:35;94708.81;;;-5.40;58.30
49943;BME280;36011;53.362;58.948;2023-03-01T14:36:42;94711.91;;;-5.32;57.93
49943;BME280;36011;53.362;58.948;2023-03-01T14:39:43;94705.47;;;-5.43;58.61
49943;BME280;36011;53.362;58.948;2023-03-01T14:42:49;94719.16;;;-5.44;57.95
49943;BME280;36011;53.362;58.948;2023-03-01T14:45:55;94714.38;;;-5.53;58.30
49943;BME280;36011;53.362;58.948;2023-03-01T14:49:24;94727.41;;;-5.35;58.49
49943;BME280;36011;53.362;58.948;2023-03-01T14:52:35;94729.84;;;-5.54;58.65
49943;BME280;36011;53.362;58.948;2023-03-01T14:55:42;94724.75;;;-5.56;58.89
49943;BME280;36011;53.362;58.948;2023-03-01T14:58:55;94730.47;;;-5.49;58.44
49943;BME280;36011;53.362;58.948;2023-03-01T15:02:02;94728.66;;;-5.46;58.78
49943;BME280;36011;53.362;58.948;2023-03-01T15:05:04;94739.59;;;-5.40;58.46
49943;BME280;36011;53.362;58.948;2023-03-01T15:08:20;94736.84;;;-5.36;58.69
49943;BME280;36011;53.362;58.948;2023-03-01T15:11:27;94734.50;;;-5.66;58.94
49943;BME280;36011;53.362;58.948;2023-03-01T15:14:45;94736.06;;;-5.61;58.99
49943;BME280;36011;53.362;58.948;2023-03-01T15:17:54;94723.50;;;-5.69;59.14
49943;BME280;36011;53.362;58.948;2023-03-01T15:21:09;94733.03;;;-5.49;59.16
49943;BME280;36011;53.362;58.948;2023-03-01T15:24:20;94736.31;;;-5.69;59.84
49943;BME280;36011;53.362;58.948;2023-03-01T15:27:25;94732.41;;;-5.54;59.27
49943;BME280;36011;53.362;58.948;2023-03-01T15:30:33;94738.47;;;-5.57;59.88
49943;BME280;36011;53.362;58.948;2023-03-01T15:33:38;94736.56;;;-5.52;59.39
49943;BME280;36011;53.362;58.948;2023-03-01T15:36:45;94741.19;;;-5.61;59.33
49943;BME280;36011;53.362;58.948;2023-03-01T15:39:54;94743.97;;;-5.68;59.11
49943;BME280;36011;53.362;58.948;2023-03-01T15:43:02;94744.13;;;-5.96;59.46
49943;BME280;36011;53.362;58.948;2023-03-01T15:46:16;94748.97;;;-5.88;59.39
49943;BME280;36011;53.362;58.948;2023-03-01T15:49:41;94742.59;;;-6.00;60.43
49943;BME280;36011;53.362;58.948;2023-03-01T15:52:46;94749.25;;;-6.21;60.86
49943;BME280;36011;53.362;58.948;2023-03-01T15:55:48;94752.97;;;-6.29;60.77
49943;BME280;36011;53.362;58.948;2023-03-01T15:58:57;94749.72;;;-6.35;60.76
49943;BME280;36011;53.362;58.948;2023-03-01T16:02:07;94750.59;;;-6.36;60.81
49943;BME280;36011;53.362;58.948;2023-03-01T16:05:28;94750.03;;;-6.44;61.63
49943;BME280;36011;53.362;58.948;2023-03-01T16:08:31;94753.28;;;-6.39;62.07
49943;BME280;36011;53.362;58.948;2023-03-01T16:11:35;94752.97;;;-6.29;61.16
49943;BME280;36011;53.362;58.948;2023-03-01T16:14:37;94749.72;;;-6.10;61.10
49943;BME280;36011;53.362;58.948;2023-03-01T16:17:41;94755.03;;;-5.91;61.40
49943;BME280;36011;53.362;58.948;2023-03-01T16:20:42;94749.34;;;-5.75;61.27
49943;BME280;36011;53.362;58.948;2023-03-01T16:23:47;94742.25;;;-5.92;61.40
49943;BME280;36011;53.362;58.948;2023-03-01T16:26:54;94751.06;;;-5.74;61.78
49943;BME280;36011;53.362;58.948;2023-03-01T16:29:58;94749.69;;;-5.84;62.14
49943;BME280;36011;53.362;58.948;2023-03-01T16:33:02;94745.13;;;-5.53;61.70
49943;BME280;36011;53.362;58.948;2023-03-01T16:36:11;94759.06;;;-5.36;60.54
49943;BME280;36011;53.362;58.948;2023-03-01T16:39:15;94738.69;;;-5.39;60.19
49943;BME280;36011;53.362;58.948;2023-03-01T16:42:18;94753.44;;;-5.23;60.14
49943;BME280;36011;53.362;58.948;2023-03-01T16:45:21;94753.25;;;-5.18;60.09
49943;BME280;36011;53.362;58.948;2023-03-01T16:48:26;94748.78;;;-5.13;59.97
49943;BME280;36011;53.362;58.948;2023-03-01T16:51:29;94739.75;;;-5.00;59.56
49943;BME280;36011;53.362;58.948;2023-03-01T16:54:31;94733.53;;;-4.94;59.45
49943;BME280;36011;53.362;58.948;2023-03-01T16:57:37;94726.38;;;-5.08;60.13
49943;BME280;36011;53.362;58.948;2023-03-01T17:00:43;94733.22;;;-5.08;60.03
49943;BME280;36011;53.362;58.948;2023-03-01T17:03:47;94724.84;;;-5.12;59.94
49943;BME280;36011;53.362;58.948;2023-03-01T17:06:52;94730.28;;;-5.21;60.07
49943;BME280;36011;53.362;58.948;2023-03-01T17:09:58;94732.22;;;-5.26;60.21
49943;BME280;36011;53.362;58.948;2023-03-01T17:13:00;94735.75;;;-5.30;60.91
49943;BME280;36011;53.362;58.948;2023-03-01T17:16:10;94725.97;;;-5.43;61.17
49943;BME280;36011;53.362;58.948;2023-03-01T17:19:14;94734.78;;;-5.50;61.28
49943;BME280;36011;53.362;58.948;2023-03-01T17:22:20;94734.00;;;-5.75;62.43
49943;BME280;36011;53.362;58.948;2023-03-01T17:25:22;94741.31;;;-5.90;62.53
49943;BME280;36011;53.362;58.948;2023-03-01T17:28:26;94739.69;;;-5.92;62.36
49943;BME280;36011;53.362;58.948;2023-03-01T17:31:35;94750.34;;;-6.03;63.49
49943;BME280;36011;53.362;58.948;2023-03-01T17:34:37;94750.63;;;-5.87;63.26
49943;BME280;36011;53.362;58.948;2023-03-01T17:37:41;94747.59;;;-5.73;62.40
49943;BME280;36011;53.362;58.948;2023-03-01T17:40:51;94746.34;;;-6.10;63.45
49943;BME280;36011;53.362;58.948;2023-03-01T17:43:58;94746.91;;;-6.02;63.22
49943;BME280;36011;53.362;58.948;2023-03-01T17:47:04;94756.81;;;-5.93;62.59
49943;BME280;36011;53.362;58.948;2023-03-01T17:50:08;94732.38;;;-5.78;62.05
49943;BME280;36011;53.362;58.948;2023-03-01T17:53:10;94744.00;;;-5.93;62.51
49943;BME280;36011;53.362;58.948;2023-03-01T17:56:16;94748.47;;;-5.98;62.06